Terminal Aerodrome Forecast
Issued by NWS Portland, OR

Home | Current Version | Previous Version | Text Only | Print | Product List | Glossary On
Versions: 1 2 3 4 5 6 7 8 9 10 11 12 13 14 15 16 17 18 19 20 21 22 23 24 25 26 27 28 29 30
000
FTUS46 KPQR 161347 AAA
TAFSLE
TAF AMD
KSLE 161347Z 1614/1712 18003KT P6SM BKN020
     FM161700 24006KT P6SM FEW050 SCT200
     FM162300 29004KT P6SM SCT100=

USA.gov is the U.S. government's official web portal to all federal, state and local government web resources and services.